Time;durP1;ratioP1;P1;durP2;ratioP2;P2;SDS_P1;SDS_P2;PMS_P1;PMS_P2;Temp;Humidity;BMP_temperature;BMP_pressure;BME280_temperature;BME280_humidity;BME280_pressure;Samples;Min_cycle;Max_cycle;Signal;HPM_P1;HPM_P2
2022/01/29 00:00:37;;;;;;;6.70;2.93;;;-1.10;99.90;-2.30;100748;;;;551683;256;24175;-83
2022/01/29 00:03:03;;;;;;;8.83;3.67;;;-1.10;99.90;-2.30;100749;;;;574737;246;24068;-80
2022/01/29 00:05:32;;;;;;;8.53;3.70;;;-1.10;99.90;-2.30;100743;;;;574866;246;24109;-80
2022/01/29 00:08:00;;;;;;;7.63;4.00;;;-1.10;99.90;-2.30;100746;;;;574710;246;24258;-78
2022/01/29 00:10:28;;;;;;;8.47;4.40;;;-1.10;99.90;-2.30;100752;;;;574722;246;24111;-78
2022/01/29 00:12:55;;;;;;;9.10;4.33;;;-1.10;99.90;-2.40;100747;;;;583549;246;24078;-79
2022/01/29 00:15:23;;;;;;;6.37;4.10;;;-1.20;99.90;-2.50;100744;;;;574636;246;24082;-79
2022/01/29 00:17:51;;;;;;;6.13;3.37;;;-1.20;99.90;-2.40;100739;;;;574488;245;24132;-78
2022/01/29 00:20:19;;;;;;;8.63;3.70;;;-1.30;99.90;-2.40;100740;;;;574550;246;24087;-83
2022/01/29 00:22:47;;;;;;;7.27;3.10;;;-1.20;99.90;-2.40;100748;;;;574431;246;25135;-79
2022/01/29 00:25:16;;;;;;;5.63;2.83;;;-1.30;99.90;-2.50;100739;;;;574624;246;24101;-78
2022/01/29 00:27:44;;;;;;;4.17;2.70;;;-1.30;99.90;-2.50;100756;;;;551967;255;24149;-80
2022/01/29 00:30:18;;;;;;;7.47;3.07;;;-1.30;99.90;-2.50;100742;;;;565916;250;24072;-80
2022/01/29 00:32:43;;;;;;;13.27;3.17;;;-1.30;99.90;-2.50;100750;;;;553181;255;25175;-81
2022/01/29 00:35:08;;;;;;;7.47;3.03;;;-1.30;99.90;-2.50;100753;;;;553038;255;24172;-80
2022/01/29 00:37:36;;;;;;;5.73;2.63;;;-1.30;99.90;-2.50;100746;;;;564653;251;24141;-80
2022/01/29 00:40:04;;;;;;;4.47;2.60;;;-1.30;99.90;-2.40;100755;;;;560162;255;24139;-80
2022/01/29 00:42:32;;;;;;;7.23;2.50;;;-1.20;99.90;-2.40;100752;;;;562302;252;24077;-79
2022/01/29 00:45:00;;;;;;;4.73;2.20;;;-1.20;99.90;-2.30;100742;;;;552592;256;24136;-83
2022/01/29 00:47:29;;;;;;;5.27;2.43;;;-1.10;99.90;-2.20;100737;;;;573221;246;24165;-80
2022/01/29 00:49:56;;;;;;;7.70;2.80;;;-1.10;99.90;-2.20;100727;;;;551876;256;24140;-78
2022/01/29 00:52:24;;;;;;;5.90;2.90;;;-1.00;99.90;-2.20;100738;;;;572919;246;24085;-83
2022/01/29 00:54:52;;;;;;;6.50;2.90;;;-1.00;99.90;-2.20;100727;;;;573137;246;24094;-81
2022/01/29 00:57:20;;;;;;;3.77;2.37;;;-1.00;99.90;-2.20;100727;;;;573097;246;24095;-83
2022/01/29 00:59:48;;;;;;;5.43;2.60;;;-1.00;99.90;-2.20;100717;;;;573238;246;24090;-79
2022/01/29 01:02:16;;;;;;;5.22;2.53;;;-1.00;99.90;-2.20;100719;;;;567874;244;35339;-80
2022/01/29 01:04:44;;;;;;;2.33;1.07;;;-1.00;99.90;-2.20;100721;;;;572743;246;24075;-83
2022/01/29 01:07:12;;;;;;;4.55;2.35;;;-1.00;99.90;-2.20;100717;;;;567882;246;35246;-85
2022/01/29 01:09:40;;;;;;;4.33;1.83;;;-1.00;99.90;-2.20;100709;;;;581220;246;24119;-80
2022/01/29 01:12:13;;;;;;;4.23;1.63;;;-1.00;99.90;-2.20;100705;;;;573219;246;24074;-83
2022/01/29 01:14:36;;;;;;;3.43;2.13;;;-1.00;99.90;-2.20;100711;;;;572659;246;24103;-85
2022/01/29 01:17:04;;;;;;;5.40;1.93;;;-1.00;99.90;-2.20;100705;;;;581700;246;24104;-79
2022/01/29 01:19:32;;;;;;;1.57;1.47;;;-1.00;99.90;-2.10;100699;;;;573128;246;25135;-87
2022/01/29 01:22:00;;;;;;;3.10;2.20;;;-0.90;99.90;-2.10;100698;;;;571474;246;24103;-85
2022/01/29 01:24:31;;;;;;;4.30;2.70;;;-0.90;99.90;-2.10;100685;;;;573111;246;24073;-84
2022/01/29 01:27:00;;;;;;;5.83;2.53;;;-0.90;99.90;-2.00;100677;;;;551242;257;24212;-78
2022/01/29 01:29:24;;;;;;;7.83;3.70;;;-0.80;99.90;-2.10;100673;;;;550943;257;25162;-79
2022/01/29 01:31:54;;;;;;;4.47;2.60;;;-0.80;99.90;-2.00;100664;;;;551475;257;24134;-79
2022/01/29 01:34:23;;;;;;;5.03;2.80;;;-0.90;99.90;-2.00;100662;;;;551934;253;24146;-78
2022/01/29 01:36:54;;;;;;;6.60;3.30;;;-0.80;99.90;-2.00;100666;;;;551034;257;24154;-80
2022/01/29 01:39:21;;;;;;;10.10;3.40;;;-0.80;99.90;-2.00;100655;;;;552170;253;24142;-79
2022/01/29 01:42:03;;;;;;;6.23;3.60;;;-0.70;99.90;-1.90;100649;;;;550887;257;24144;-85
2022/01/29 01:44:14;;;;;;;5.43;2.90;;;-0.70;99.90;-1.90;100642;;;;572565;249;24087;-80
2022/01/29 01:46:42;;;;;;;6.80;3.43;;;-0.70;99.90;-1.90;100637;;;;562814;252;24076;-80
2022/01/29 01:49:10;;;;;;;8.63;3.03;;;-0.70;99.90;-1.90;100628;;;;551051;257;24191;-79
2022/01/29 01:51:38;;;;;;;6.63;3.47;;;-0.70;99.90;-1.90;100622;;;;554019;255;24118;-79
2022/01/29 01:54:06;;;;;;;4.33;2.73;;;-0.70;99.90;-1.90;100610;;;;551162;257;24128;-79
2022/01/29 01:56:34;;;;;;;4.90;2.87;;;-0.70;99.90;-1.90;100600;;;;563015;251;24128;-79
2022/01/29 01:59:02;;;;;;;11.93;2.60;;;-0.70;99.90;-1.90;100583;;;;562787;251;24087;-78
2022/01/29 02:01:30;;;;;;;5.07;2.00;;;-0.70;99.90;-1.80;100593;;;;562968;251;24286;-78
2022/01/29 02:03:58;;;;;;;6.20;2.60;;;-0.60;99.90;-1.80;100586;;;;562405;251;24108;-81
2022/01/29 02:06:26;;;;;;;4.77;1.80;;;-0.60;99.90;-1.70;100574;;;;562274;251;24089;-79
2022/01/29 02:08:59;;;;;;;6.30;2.27;;;-0.50;99.90;-1.70;100567;;;;562536;251;24144;-79
2022/01/29 02:11:23;;;;;;;8.10;2.33;;;-0.50;99.90;-1.60;100573;;;;551332;256;24221;-79
2022/01/29 02:13:51;;;;;;;7.67;2.07;;;-0.50;99.90;-1.60;100560;;;;562767;251;24194;-83
2022/01/29 02:16:19;;;;;;;2.60;1.53;;;-0.40;99.90;-1.50;100555;;;;562336;252;24120;-85
2022/01/29 02:18:47;;;;;;;3.60;1.80;;;-0.40;99.90;-1.50;100549;;;;572452;246;24066;-86
2022/01/29 02:21:15;;;;;;;2.40;1.40;;;-0.30;99.90;-1.40;100552;;;;573229;246;24104;-79
2022/01/29 02:23:43;;;;;;;2.97;1.23;;;-0.20;99.90;-1.30;100550;;;;571316;247;24080;-83
2022/01/29 02:26:11;;;;;;;2.87;1.10;;;-0.10;99.90;-1.30;100554;;;;551193;257;24227;-83
2022/01/29 02:28:40;;;;;;;2.10;1.23;;;0.00;99.90;-1.20;100557;;;;563216;251;24073;-81
2022/01/29 02:31:08;;;;;;;5.13;1.10;;;-0.10;99.90;-1.10;100557;;;;559564;257;25192;-80
2022/01/29 02:33:40;;;;;;;0.83;0.63;;;0.00;99.90;-1.10;100556;;;;572209;247;24137;-81
2022/01/29 02:36:04;;;;;;;0.63;0.63;;;0.10;99.90;-1.00;100551;;;;572145;247;24092;-85
2022/01/29 02:38:32;;;;;;;1.47;1.00;;;0.10;99.90;-1.00;100554;;;;583049;246;24092;-84
2022/01/29 02:41:02;;;;;;;2.50;1.37;;;0.10;99.90;-0.90;100556;;;;559259;256;24145;-82
2022/01/29 02:43:31;;;;;;;2.60;1.43;;;0.20;99.90;-0.90;100547;;;;570793;249;24101;-80
2022/01/29 02:45:56;;;;;;;2.23;1.00;;;0.20;99.90;-0.90;100551;;;;571174;247;24090;-82
2022/01/29 02:48:24;;;;;;;1.10;1.00;;;0.30;99.90;-0.90;100539;;;;581091;244;24154;-80
2022/01/29 02:50:52;;;;;;;0.97;0.80;;;0.30;99.90;-0.90;100529;;;;580813;247;24113;-78
2022/01/29 02:53:20;;;;;;;2.00;1.13;;;0.30;99.90;-0.90;100532;;;;579134;247;24086;-81
2022/01/29 02:55:48;;;;;;;0.87;0.80;;;0.30;99.90;-0.80;100532;;;;559404;257;24138;-79
2022/01/29 02:58:16;;;;;;;2.87;1.00;;;0.30;99.90;-0.80;100531;;;;571256;251;24139;-81
2022/01/29 03:00:44;;;;;;;5.57;0.97;;;0.40;99.90;-0.80;100534;;;;563122;252;24128;-81
2022/01/29 03:03:11;;;;;;;1.20;1.00;;;0.40;99.90;-0.80;100529;;;;551695;256;24136;-79
2022/01/29 03:05:39;;;;;;;1.63;0.80;;;0.40;99.90;-0.70;100536;;;;559969;256;24173;-79
2022/01/29 03:08:07;;;;;;;2.23;1.10;;;0.40;99.90;-0.70;100539;;;;563468;249;24126;-80
2022/01/29 03:10:35;;;;;;;5.10;0.80;;;0.40;99.90;-0.70;100541;;;;560316;252;24138;-80
2022/01/29 03:13:06;;;;;;;1.00;0.90;;;0.50;99.90;-0.70;100548;;;;560145;256;24178;-81
2022/01/29 03:15:31;;;;;;;0.77;0.70;;;0.50;99.90;-0.70;100534;;;;560593;256;24164;-84
2022/01/29 03:17:59;;;;;;;1.03;0.87;;;0.50;99.90;-0.60;100534;;;;563343;251;24119;-79
2022/01/29 03:20:27;;;;;;;1.60;0.90;;;0.50;99.90;-0.60;100516;;;;573250;247;24068;-78
2022/01/29 03:22:55;;;;;;;1.33;0.63;;;0.60;99.90;-0.60;100510;;;;560176;256;24124;-80
2022/01/29 03:25:23;;;;;;;5.00;0.83;;;0.60;99.90;-0.60;100504;;;;567000;252;24101;-81
2022/01/29 03:27:51;;;;;;;2.60;1.00;;;0.60;99.90;-0.50;100501;;;;554847;252;35415;-79
2022/01/29 03:30:19;;;;;;;1.37;1.03;;;0.60;99.90;-0.50;100504;;;;562865;252;24106;-79
2022/01/29 03:32:47;;;;;;;2.13;1.13;;;0.60;99.90;-0.50;100507;;;;572949;247;25131;-79
2022/01/29 03:35:16;;;;;;;1.60;0.83;;;0.70;99.90;-0.50;100496;;;;566500;253;24112;-82
2022/01/29 03:37:43;;;;;;;4.20;1.10;;;0.70;99.90;-0.50;100492;;;;559246;254;24166;-80
2022/01/29 03:40:11;;;;;;;0.53;0.53;;;0.70;99.90;-0.50;100479;;;;559548;257;24143;-79
2022/01/29 03:42:46;;;;;;;3.80;0.90;;;0.70;99.90;-0.50;100475;;;;560727;253;24086;-79
2022/01/29 03:45:08;;;;;;;4.37;0.83;;;0.60;99.90;-0.60;100478;;;;556290;257;24174;-79
2022/01/29 03:47:35;;;;;;;4.37;1.00;;;0.50;99.90;-0.60;100472;;;;572094;247;24093;-78
2022/01/29 03:50:03;;;;;;;3.00;1.10;;;0.50;99.90;-0.70;100461;;;;578762;247;24084;-79
2022/01/29 03:52:31;;;;;;;0.70;0.70;;;0.50;99.90;-0.80;100455;;;;572415;246;24095;-80
2022/01/29 03:54:59;;;;;;;4.57;1.87;;;0.40;99.90;-0.80;100454;;;;560880;253;35291;-78
2022/01/29 03:57:27;;;;;;;4.27;0.90;;;0.30;99.90;-0.90;100461;;;;559252;256;24189;-78
2022/01/29 03:59:55;;;;;;;0.90;0.90;;;0.30;99.90;-0.90;100449;;;;572366;247;24135;-78
2022/01/29 04:02:23;;;;;;;2.93;1.30;;;0.30;99.90;-0.90;100445;;;;578734;246;24115;-79
2022/01/29 04:04:51;;;;;;;2.63;1.43;;;0.20;99.90;-1.00;100432;;;;566159;253;24135;-79
2022/01/29 04:07:19;;;;;;;2.33;1.03;;;0.20;99.90;-1.00;100420;;;;558292;251;24128;-80
2022/01/29 04:09:49;;;;;;;3.60;1.20;;;0.10;99.90;-1.00;100407;;;;561638;252;24099;-80
2022/01/29 04:12:15;;;;;;;3.83;1.30;;;0.20;99.90;-1.00;100397;;;;571430;251;24095;-78
2022/01/29 04:14:43;;;;;;;5.50;1.77;;;0.10;99.90;-1.00;100399;;;;572775;247;24146;-78
2022/01/29 04:17:15;;;;;;;4.80;1.57;;;0.10;99.90;-1.10;100400;;;;559105;257;24168;-81
2022/01/29 04:19:42;;;;;;;4.97;1.20;;;0.10;99.90;-1.10;100386;;;;573332;247;24076;-78
2022/01/29 04:22:07;;;;;;;5.20;1.50;;;0.00;99.90;-1.10;100375;;;;573281;246;24119;-78
2022/01/29 04:24:35;;;;;;;3.23;1.63;;;0.00;99.90;-1.20;100383;;;;583854;246;24163;-78
2022/01/29 04:27:09;;;;;;;7.07;2.00;;;0.00;99.90;-1.20;100374;;;;584000;246;24120;-77
2022/01/29 04:29:41;;;;;;;1.93;1.47;;;-0.10;99.90;-1.20;100369;;;;581279;247;24091;-78
2022/01/29 04:32:10;;;;;;;4.60;1.77;;;-0.10;99.90;-1.30;100357;;;;562175;251;24097;-78
2022/01/29 04:34:29;;;;;;;7.80;1.43;;;-0.20;99.90;-1.30;100348;;;;562599;251;24131;-80
2022/01/29 04:36:57;;;;;;;5.70;1.43;;;-0.20;99.90;-1.30;100339;;;;572039;247;24100;-82
2022/01/29 04:39:25;;;;;;;3.87;1.83;;;-0.20;99.90;-1.30;100337;;;;572389;246;24093;-84
2022/01/29 04:41:53;;;;;;;2.57;1.47;;;-0.20;99.90;-1.30;100330;;;;551155;256;24121;-84
2022/01/29 04:44:21;;;;;;;4.23;1.40;;;-0.20;99.90;-1.30;100337;;;;562962;251;24094;-83
2022/01/29 04:46:49;;;;;;;8.10;1.47;;;-0.20;99.90;-1.30;100342;;;;551402;257;24168;-86
2022/01/29 04:49:17;;;;;;;10.40;2.03;;;-0.20;99.90;-1.30;100341;;;;554438;255;24167;-85
2022/01/29 04:51:45;;;;;;;9.43;2.43;;;-0.20;99.90;-1.30;100344;;;;554479;255;24145;-78
2022/01/29 04:54:13;;;;;;;3.67;1.57;;;-0.20;99.90;-1.20;100345;;;;561876;251;24101;-78
2022/01/29 04:56:41;;;;;;;9.50;1.90;;;-0.10;99.90;-1.20;100335;;;;561810;252;24097;-78
2022/01/29 04:59:09;;;;;;;5.13;2.23;;;-0.10;99.90;-1.20;100335;;;;561646;252;24160;-77
2022/01/29 05:01:39;;;;;;;4.47;1.47;;;0.00;99.90;-1.10;100334;;;;562055;251;24167;-78
2022/01/29 05:04:06;;;;;;;8.20;1.80;;;-0.10;99.90;-1.10;100323;;;;561100;251;24139;-78
2022/01/29 05:06:35;;;;;;;8.73;1.80;;;0.00;99.90;-1.10;100317;;;;571159;251;24173;-78
2022/01/29 05:09:06;;;;;;;5.03;2.03;;;0.00;99.90;-1.10;100318;;;;572404;247;24133;-77
2022/01/29 05:11:34;;;;;;;5.60;2.00;;;0.00;99.90;-1.10;100314;;;;555315;257;24138;-79
2022/01/29 05:14:00;;;;;;;10.10;1.97;;;0.00;99.90;-1.10;100324;;;;554594;257;24165;-78
2022/01/29 05:16:40;;;;;;;7.97;2.30;;;0.00;99.90;-1.10;100320;;;;562319;252;24101;-78
2022/01/29 05:27:13;;;;;;;3.50;2.23;;;0.10;99.90;-1.00;100306;;;;583009;246;24080;-78
2022/01/29 05:29:40;;;;;;;9.77;1.90;;;0.10;99.90;-1.00;100298;;;;554203;255;24135;-79
2022/01/29 05:32:08;;;;;;;6.70;2.13;;;0.10;99.90;-1.00;100287;;;;562901;251;24125;-80
2022/01/29 05:34:40;;;;;;;6.63;2.27;;;0.20;99.90;-1.00;100284;;;;559883;252;24114;-85
2022/01/29 05:37:06;;;;;;;4.00;1.90;;;0.20;99.90;-1.00;100288;;;;572043;251;24154;-83
2022/01/29 05:39:34;;;;;;;7.27;2.10;;;0.10;99.90;-1.00;100271;;;;573130;247;24071;-77
2022/01/29 05:42:02;;;;;;;8.03;1.77;;;0.20;99.90;-0.90;100267;;;;581300;247;24089;-78
2022/01/29 05:44:29;;;;;;;4.67;2.00;;;0.20;99.90;-0.90;100256;;;;579178;246;24081;-78
2022/01/29 05:46:57;;;;;;;2.03;1.73;;;0.20;99.90;-0.80;100252;;;;579279;246;24067;-78
2022/01/29 05:49:25;;;;;;;8.83;2.40;;;0.30;99.90;-0.80;100244;;;;580998;246;24149;-80
2022/01/29 05:51:54;;;;;;;8.13;2.23;;;0.40;99.90;-0.70;100244;;;;581515;246;24069;-82
2022/01/29 05:54:22;;;;;;;3.73;2.10;;;0.40;99.90;-0.70;100228;;;;576465;246;24130;-83
2022/01/29 05:56:50;;;;;;;7.93;2.30;;;0.50;99.90;-0.60;100230;;;;576438;247;24067;-86
2022/01/29 05:59:18;;;;;;;11.53;2.50;;;0.50;99.90;-0.50;100231;;;;562636;252;24120;-79
2022/01/29 06:01:46;;;;;;;4.13;2.00;;;0.60;99.90;-0.50;100230;;;;559771;252;24144;-78
2022/01/29 06:04:13;;;;;;;3.60;2.30;;;0.60;99.90;-0.50;100219;;;;572619;251;24098;-78
2022/01/29 06:06:42;;;;;;;2.33;1.70;;;0.70;99.90;-0.40;100228;;;;572363;251;24104;-77
2022/01/29 06:09:10;;;;;;;4.10;1.73;;;0.70;99.90;-0.40;100220;;;;571759;251;24072;-78
2022/01/29 06:11:38;;;;;;;11.33;3.00;;;0.80;99.90;-0.30;100223;;;;572179;251;24119;-79
2022/01/29 06:14:06;;;;;;;11.40;2.63;;;0.80;99.90;-0.30;100216;;;;560784;252;24113;-77
2022/01/29 06:16:35;;;;;;;7.07;2.90;;;0.90;99.90;-0.20;100213;;;;572424;247;24080;-77
2022/01/29 06:19:06;;;;;;;14.87;3.03;;;0.80;99.90;-0.20;100211;;;;575981;246;24095;-77
2022/01/29 06:21:30;;;;;;;4.67;2.80;;;0.90;99.90;-0.20;100217;;;;580288;246;24092;-77
2022/01/29 06:23:59;;;;;;;4.17;2.47;;;0.90;99.90;-0.20;100211;;;;583036;246;24091;-77
2022/01/29 06:26:26;;;;;;;7.83;2.77;;;0.90;99.90;-0.20;100213;;;;578879;247;24115;-86
2022/01/29 06:28:54;;;;;;;7.60;2.33;;;1.00;99.90;-0.10;100199;;;;578888;246;24156;-78
2022/01/29 06:31:23;;;;;;;5.77;2.67;;;1.00;99.90;-0.10;100199;;;;580405;247;24083;-79
2022/01/29 06:33:51;;;;;;;3.77;1.70;;;1.00;99.90;-0.10;100195;;;;576074;246;24075;-80
2022/01/29 06:36:19;;;;;;;3.20;2.03;;;1.00;99.90;-0.10;100180;;;;575785;247;25117;-77
2022/01/29 06:38:46;;;;;;;10.02;3.70;;;1.10;99.90;0.00;100175;;;;571105;246;35241;-77
2022/01/29 06:41:15;;;;;;;6.27;2.70;;;1.10;99.90;0.00;100175;;;;572763;246;24098;-77
2022/01/29 06:43:43;;;;;;;3.90;1.87;;;1.10;99.90;0.00;100158;;;;573658;247;24094;-83
2022/01/29 06:46:11;;;;;;;7.87;2.40;;;1.20;99.90;0.00;100161;;;;573680;246;24082;-77
2022/01/29 06:48:39;;;;;;;2.33;1.93;;;1.20;99.90;0.10;100151;;;;573354;246;24084;-78
2022/01/29 06:51:07;;;;;;;8.10;2.63;;;1.20;99.90;0.10;100142;;;;573374;246;24111;-78
2022/01/29 06:53:36;;;;;;;5.40;2.00;;;1.20;99.90;0.10;100139;;;;572686;246;24096;-77
2022/01/29 06:56:08;;;;;;;3.03;2.10;;;1.20;99.90;0.10;100127;;;;573234;246;24060;-79
2022/01/29 06:58:31;;;;;;;6.27;1.93;;;1.30;99.90;0.10;100129;;;;554435;251;24119;-78
2022/01/29 07:00:59;;;;;;;8.27;2.23;;;1.30;99.90;0.20;100120;;;;551476;257;24147;-78
2022/01/29 07:03:27;;;;;;;3.73;1.83;;;1.30;99.90;0.20;100120;;;;561563;251;24151;-81
2022/01/29 07:05:55;;;;;;;4.73;2.33;;;1.30;99.90;0.30;100110;;;;567640;252;24073;-78
2022/01/29 07:08:23;;;;;;;2.63;1.93;;;1.30;99.90;0.30;100112;;;;572661;251;24086;-80
2022/01/29 07:10:52;;;;;;;14.60;3.40;;;1.40;99.90;0.40;100118;;;;572106;251;24083;-79
2022/01/29 07:13:20;;;;;;;12.70;3.63;;;1.50;99.90;0.50;100116;;;;572531;251;24116;-82
2022/01/29 07:15:47;;;;;;;3.93;2.47;;;1.60;99.90;0.70;100105;;;;563910;251;24128;-81
2022/01/29 07:18:15;;;;;;;8.07;2.93;;;1.70;99.90;0.90;100093;;;;581603;245;24102;-79
2022/01/29 07:20:42;;;;;;;5.10;2.53;;;1.90;99.90;1.00;100093;;;;551128;257;24142;-78
2022/01/29 07:23:10;;;;;;;8.77;2.57;;;2.00;99.90;1.10;100091;;;;567882;252;24162;-80
2022/01/29 07:25:39;;;;;;;7.23;2.67;;;2.20;99.90;1.10;100084;;;;566900;252;24091;-80
2022/01/29 07:28:07;;;;;;;7.90;2.50;;;2.20;99.90;1.20;100088;;;;559203;257;24245;-83
2022/01/29 07:30:35;;;;;;;10.03;3.27;;;2.30;99.90;1.30;100074;;;;551004;257;24246;-78
2022/01/29 07:33:03;;;;;;;11.20;3.93;;;2.40;99.90;1.40;100068;;;;561440;252;24169;-81
2022/01/29 07:35:31;;;;;;;11.13;3.70;;;2.50;99.90;1.40;100058;;;;567305;252;24160;-79
2022/01/29 07:37:59;;;;;;;6.37;2.50;;;2.40;99.90;1.30;100047;;;;572197;251;25143;-81
2022/01/29 07:40:27;;;;;;;9.27;2.73;;;2.40;99.90;1.40;100048;;;;572453;251;24129;-80
2022/01/29 07:42:55;;;;;;;7.27;3.10;;;2.40;99.90;1.40;100037;;;;559658;257;24278;-82
2022/01/29 07:45:23;;;;;;;5.87;2.70;;;2.40;99.90;1.30;100025;;;;559382;252;24223;-81
2022/01/29 07:47:51;;;;;;;9.53;3.53;;;2.40;99.90;1.30;100020;;;;561304;252;24104;-79
2022/01/29 07:50:19;;;;;;;10.80;3.90;;;2.40;99.90;1.30;100022;;;;555964;257;24137;-77
2022/01/29 07:52:47;;;;;;;6.60;2.63;;;2.40;99.90;1.30;100030;;;;551638;256;24141;-81
2022/01/29 07:55:15;;;;;;;10.13;3.13;;;2.40;99.90;1.30;100019;;;;562722;251;24124;-80
2022/01/29 07:57:43;;;;;;;7.43;3.67;;;2.40;99.90;1.40;100013;;;;556641;257;24137;-77
2022/01/29 08:00:11;;;;;;;11.27;3.93;;;2.40;99.90;1.50;100008;;;;551672;257;24146;-76
2022/01/29 08:02:39;;;;;;;10.32;4.57;;;2.50;99.90;1.60;99995;;;;563081;252;35442;-79
2022/01/29 08:05:10;;;;;;;9.30;3.63;;;2.70;99.90;1.70;99986;;;;567716;251;24126;-83
2022/01/29 08:07:34;;;;;;;8.67;3.20;;;2.80;99.90;1.80;99970;;;;572694;250;24094;-83
2022/01/29 08:10:03;;;;;;;6.87;2.57;;;2.90;99.90;1.90;99968;;;;582209;247;24100;-85
2022/01/29 08:12:31;;;;;;;6.30;2.97;;;2.80;99.90;2.00;99963;;;;581672;247;24104;-84
2022/01/29 08:15:02;;;;;;;6.40;2.40;;;3.00;99.90;2.10;99950;;;;581659;247;24116;-83
2022/01/29 08:17:27;;;;;;;3.73;2.93;;;3.10;99.90;2.10;99944;;;;572598;247;24101;-84
2022/01/29 08:19:57;;;;;;;15.47;2.67;;;3.20;99.90;2.20;99950;;;;551905;257;24178;-86
2022/01/29 08:22:23;;;;;;;8.97;3.27;;;3.20;99.90;2.30;99931;;;;561926;252;24127;-80
2022/01/29 08:24:54;;;;;;;7.47;3.40;;;3.30;99.90;2.40;99918;;;;556465;257;24145;-80
2022/01/29 08:27:18;;;;;;;4.73;2.50;;;3.40;99.90;2.50;99916;;;;551087;257;24231;-78
2022/01/29 08:29:46;;;;;;;5.13;2.70;;;3.60;99.90;2.60;99918;;;;549426;256;25236;-76
2022/01/29 08:32:14;;;;;;;5.85;3.50;;;3.60;99.90;2.70;99911;;;;565988;251;35478;-77
2022/01/29 08:34:45;;;;;;;6.37;3.23;;;3.70;99.90;2.70;99914;;;;562488;252;24126;-77
2022/01/29 08:37:13;;;;;;;3.57;2.97;;;3.70;99.90;2.70;99907;;;;562213;251;24118;-79
2022/01/29 08:39:41;;;;;;;6.83;2.63;;;3.70;99.90;2.70;99912;;;;562531;252;24223;-78
2022/01/29 08:42:06;;;;;;;5.80;2.53;;;3.70;99.90;2.60;99897;;;;561523;251;24351;-77
2022/01/29 08:44:34;;;;;;;5.00;2.67;;;3.70;99.90;2.40;99887;;;;566464;250;24114;-77
2022/01/29 08:47:02;;;;;;;2.90;2.63;;;3.60;99.90;2.40;99888;;;;566825;251;24109;-81
2022/01/29 08:49:29;;;;;;;4.67;2.47;;;3.50;99.90;2.40;99890;;;;572167;251;24133;-77
2022/01/29 08:51:57;;;;;;;2.70;1.90;;;3.40;99.90;2.30;99876;;;;563479;252;24087;-81
2022/01/29 08:54:25;;;;;;;4.70;2.53;;;3.40;99.90;2.20;99886;;;;574536;250;24070;-78
2022/01/29 08:56:53;;;;;;;2.57;2.30;;;3.30;99.90;2.20;99871;;;;573382;249;24098;-77
2022/01/29 08:59:21;;;;;;;3.30;2.20;;;3.20;99.90;2.20;99872;;;;573146;249;24138;-82
2022/01/29 09:01:50;;;;;;;2.87;2.53;;;3.20;99.90;2.10;99854;;;;573406;246;24137;-82
2022/01/29 09:04:18;;;;;;;2.97;2.70;;;3.20;99.90;2.10;99847;;;;573882;248;24088;-77
2022/01/29 09:06:45;;;;;;;8.30;3.90;;;3.10;99.90;2.10;99846;;;;575147;250;24099;-83
2022/01/29 09:09:20;;;;;;;3.30;2.50;;;3.10;99.90;2.00;99846;;;;569547;250;24102;-79
2022/01/29 09:11:41;;;;;;;12.00;3.07;;;3.10;99.90;2.00;99819;;;;568317;250;24093;-78
2022/01/29 09:14:09;;;;;;;4.87;3.10;;;3.10;99.90;2.00;99818;;;;574307;249;24144;-77
2022/01/29 09:16:37;;;;;;;5.83;3.20;;;3.00;99.90;2.00;99811;;;;574193;249;24157;-79
2022/01/29 09:19:05;;;;;;;6.07;3.33;;;3.00;99.90;2.00;99806;;;;574147;244;24077;-77
2022/01/29 09:21:33;;;;;;;4.50;3.30;;;3.00;99.90;2.00;99809;;;;574343;249;24083;-77
2022/01/29 09:24:01;;;;;;;6.77;3.07;;;3.00;99.90;1.90;99809;;;;573977;250;24074;-76
2022/01/29 09:26:29;;;;;;;4.23;3.43;;;3.00;99.90;1.90;99799;;;;573916;250;24081;-77
2022/01/29 09:28:57;;;;;;;3.17;2.87;;;2.90;99.90;1.90;99808;;;;573887;250;24094;-77
2022/01/29 09:31:25;;;;;;;6.23;3.30;;;2.90;99.90;1.90;99791;;;;573858;250;24074;-76
2022/01/29 09:33:53;;;;;;;5.10;3.13;;;2.90;99.90;1.80;99782;;;;573974;250;24086;-77
2022/01/29 09:36:21;;;;;;;6.33;3.37;;;2.90;99.90;1.90;99775;;;;573982;250;24080;-76
2022/01/29 09:38:49;;;;;;;6.90;3.27;;;2.80;99.90;1.80;99753;;;;562648;250;24073;-77
2022/01/29 09:41:20;;;;;;;4.37;3.40;;;2.90;99.90;1.90;99755;;;;573691;250;24070;-77
2022/01/29 09:43:46;;;;;;;4.80;3.57;;;2.90;99.90;1.90;99744;;;;561024;251;24085;-77
2022/01/29 09:46:16;;;;;;;6.57;3.73;;;2.90;99.90;1.90;99713;;;;573497;246;24152;-77
2022/01/29 09:48:44;;;;;;;5.33;3.53;;;2.90;99.90;1.90;99725;;;;549470;257;24167;-78
2022/01/29 09:51:12;;;;;;;6.40;3.53;;;2.90;99.90;2.00;99713;;;;566274;252;24149;-82
2022/01/29 09:53:36;;;;;;;5.83;3.00;;;3.00;99.90;2.00;99710;;;;561197;252;24131;-76
2022/01/29 09:56:04;;;;;;;4.87;3.03;;;3.00;99.90;2.00;99706;;;;562146;252;24105;-77
2022/01/29 09:58:33;;;;;;;4.50;3.13;;;3.10;99.90;2.10;99705;;;;551025;257;24168;-78
2022/01/29 10:01:01;;;;;;;4.60;3.20;;;3.10;99.90;2.00;99701;;;;562362;251;24166;-79
2022/01/29 10:03:29;;;;;;;5.30;3.33;;;3.10;99.90;2.00;99700;;;;562048;252;24115;-76
2022/01/29 10:05:58;;;;;;;4.33;2.90;;;3.00;99.90;2.00;99695;;;;562423;252;24105;-78
2022/01/29 10:08:25;;;;;;;3.50;3.20;;;3.10;99.90;2.00;99677;;;;551047;257;24231;-76
2022/01/29 10:10:56;;;;;;;4.20;3.27;;;3.10;99.90;2.00;99665;;;;561987;252;24113;-76
2022/01/29 10:13:35;;;;;;;5.83;3.57;;;3.10;99.90;2.00;99650;;;;558197;252;24135;-78
2022/01/29 10:16:20;;;;;;;4.37;3.43;;;3.00;99.90;2.00;99639;;;;550589;256;24220;-77
2022/01/29 10:19:07;;;;;;;3.10;2.67;;;3.00;99.90;2.00;99650;;;;560289;252;24103;-76
2022/01/29 10:21:35;;;;;;;5.83;3.70;;;3.00;99.90;2.00;99632;;;;563073;251;24135;-77
2022/01/29 10:24:17;;;;;;;2.80;2.60;;;3.00;99.90;2.00;99625;;;;561977;251;24105;-77
2022/01/29 10:26:49;;;;;;;6.93;3.40;;;3.00;99.90;2.00;99618;;;;558903;251;24162;-77
2022/01/29 10:29:16;;;;;;;2.43;2.23;;;3.10;99.90;2.00;99605;;;;562440;250;24166;-77
2022/01/29 10:31:47;;;;;;;2.70;2.43;;;3.10;99.90;2.00;99604;;;;572478;246;24097;-77
2022/01/29 10:34:19;;;;;;;2.70;2.50;;;3.10;99.90;2.10;99596;;;;550743;257;24197;-78
2022/01/29 10:36:46;;;;;;;2.10;2.00;;;3.10;99.90;2.00;99589;;;;563316;252;24189;-77
2022/01/29 10:39:11;;;;;;;2.90;2.03;;;3.10;99.90;2.00;99593;;;;561529;251;24161;-76
2022/01/29 10:41:39;;;;;;;3.30;2.77;;;2.90;99.90;1.90;99583;;;;562010;252;24134;-77
2022/01/29 10:46:44;;;;;;;3.57;2.47;;;3.00;99.90;1.90;99562;;;;559693;253;24132;-79
2022/01/29 10:49:30;;;;;;;3.73;2.47;;;2.90;99.90;1.90;99552;;;;567992;249;24070;-77
2022/01/29 10:52:07;;;;;;;4.05;3.50;;;2.90;99.90;1.90;99534;;;;566522;247;35272;-78
2022/01/29 10:54:35;;;;;;;3.40;3.10;;;2.80;99.90;1.90;99531;;;;571942;246;24088;-78
2022/01/29 10:57:11;;;;;;;3.83;2.17;;;2.90;99.90;1.90;99519;;;;572680;246;24082;-77
2022/01/29 10:59:54;;;;;;;6.67;2.80;;;2.90;99.90;1.90;99514;;;;572683;246;24103;-79
2022/01/29 11:02:26;;;;;;;2.90;2.40;;;2.90;99.90;1.90;99514;;;;572590;247;24100;-79
2022/01/29 11:04:50;;;;;;;3.43;2.53;;;2.90;99.90;1.90;99498;;;;571603;247;24204;-82
2022/01/29 11:07:23;;;;;;;3.00;2.07;;;2.90;99.90;1.90;99482;;;;572725;247;24095;-78
2022/01/29 11:09:50;;;;;;;2.57;2.20;;;2.90;99.90;1.90;99474;;;;551086;257;24161;-81
2022/01/29 11:12:17;;;;;;;2.17;1.63;;;2.90;99.90;1.90;99471;;;;567230;252;24094;-82
2022/01/29 11:14:45;;;;;;;1.63;1.53;;;2.90;99.90;1.90;99468;;;;566201;252;24139;-82
2022/01/29 11:17:17;;;;;;;2.17;2.07;;;2.90;99.90;1.80;99452;;;;559185;252;24111;-78
2022/01/29 11:19:41;;;;;;;3.60;2.10;;;2.80;99.90;1.80;99440;;;;560864;252;24155;-82
2022/01/29 11:22:12;;;;;;;3.83;2.10;;;2.80;99.90;1.80;99431;;;;567527;252;24136;-81
2022/01/29 11:24:37;;;;;;;1.77;1.67;;;2.80;99.90;1.80;99423;;;;559225;256;24155;-79
2022/01/29 11:27:29;;;;;;;1.80;1.70;;;2.80;99.90;1.80;99413;;;;561911;252;24115;-80
2022/01/29 11:30:09;;;;;;;2.47;1.90;;;2.80;99.90;1.80;99397;;;;553712;255;24183;-80
2022/01/29 11:32:42;;;;;;;2.00;1.80;;;2.80;99.90;1.80;99389;;;;585458;245;24091;-79
2022/01/29 11:35:07;;;;;;;1.60;1.50;;;2.80;99.90;1.80;99373;;;;582443;246;24099;-83